createdAt,value
2019-01-20T00:01:13.552Z,-0.70
2019-01-20T00:03:43.753Z,-0.70
2019-01-20T00:06:14.099Z,-0.70
2019-01-20T00:08:44.245Z,-0.80
2019-01-20T00:11:16.740Z,-0.80
2019-01-20T00:13:46.327Z,-0.70
2019-01-20T00:16:16.695Z,-0.80
2019-01-20T00:18:46.874Z,-0.80
2019-01-20T00:21:17.072Z,-0.80
2019-01-20T00:23:47.345Z,-0.80
2019-01-20T00:26:17.530Z,-0.80
2019-01-20T00:28:47.766Z,-0.80
2019-01-20T00:31:17.981Z,-0.90
2019-01-20T00:33:48.232Z,-0.90
2019-01-20T00:36:18.422Z,-0.90
2019-01-20T00:38:48.542Z,-1.00
2019-01-20T00:41:24.010Z,-1.00
2019-01-20T00:43:50.910Z,-1.00
2019-01-20T00:46:21.093Z,-1.00
2019-01-20T00:48:51.175Z,-1.00
2019-01-20T00:51:21.868Z,-1.00
2019-01-20T00:53:52.215Z,-1.00
2019-01-20T00:56:22.394Z,-1.00
2019-01-20T00:58:52.566Z,-1.00
2019-01-20T01:01:22.747Z,-1.00
2019-01-20T01:03:53.001Z,-1.00
2019-01-20T01:06:23.186Z,-1.00
2019-01-20T01:08:53.418Z,-1.10
2019-01-20T01:11:23.566Z,-1.20
2019-01-20T01:13:53.838Z,-1.20
2019-01-20T01:16:24.004Z,-1.20
2019-01-20T01:18:54.192Z,-1.10
2019-01-20T01:21:24.450Z,-1.10
2019-01-20T01:23:54.590Z,-1.10
2019-01-20T01:26:24.844Z,-1.10
2019-01-20T01:28:54.976Z,-1.20
2019-01-20T01:31:25.066Z,-1.20
2019-01-20T01:33:55.295Z,-1.20
2019-01-20T01:36:25.482Z,-1.20
2019-01-20T01:38:55.656Z,-1.10
2019-01-20T01:41:25.880Z,-1.00
2019-01-20T01:43:56.056Z,-1.10
2019-01-20T01:46:26.216Z,-1.10
2019-01-20T01:48:56.571Z,-1.20
2019-01-20T01:51:26.727Z,-1.20
2019-01-20T01:53:57.190Z,-1.20
2019-01-20T01:56:27.436Z,-1.20
2019-01-20T01:58:57.628Z,-1.30
2019-01-20T02:01:27.825Z,-1.30
2019-01-20T02:03:58.029Z,-1.20
2019-01-20T02:06:28.230Z,-1.20
2019-01-20T02:08:58.379Z,-1.30
2019-01-20T02:11:28.546Z,-1.40
2019-01-20T02:13:58.704Z,-1.40
2019-01-20T02:16:28.800Z,-1.50
2019-01-20T02:18:58.922Z,-1.50
2019-01-20T02:21:29.059Z,-1.50
2019-01-20T02:24:01.623Z,-1.50
2019-01-20T02:26:31.834Z,-1.50
2019-01-20T02:29:02.008Z,-1.50
2019-01-20T02:31:32.100Z,-1.50
2019-01-20T02:34:02.262Z,-1.60
2019-01-20T02:36:32.425Z,-1.60
2019-01-20T02:39:03.601Z,-1.60
2019-01-20T02:41:33.784Z,-1.60
2019-01-20T02:44:04.194Z,-1.60
2019-01-20T02:46:34.448Z,-1.60
2019-01-20T02:49:04.926Z,-1.60
2019-01-20T02:51:35.192Z,-1.50
2019-01-20T02:54:05.355Z,-1.60
2019-01-20T02:56:35.462Z,-1.60
2019-01-20T02:59:05.949Z,-1.70
2019-01-20T03:01:36.029Z,-1.80
2019-01-20T03:04:06.301Z,-1.80
2019-01-20T03:06:36.529Z,-1.80
2019-01-20T03:09:09.354Z,-1.80
2019-01-20T03:11:39.557Z,-1.90
2019-01-20T03:14:09.752Z,-1.90
2019-01-20T03:16:39.851Z,-1.90
2019-01-20T03:19:10.143Z,-1.90
2019-01-20T03:21:40.368Z,-1.80
2019-01-20T03:24:10.523Z,-1.80
2019-01-20T03:26:40.701Z,-1.80
2019-01-20T03:29:10.872Z,-1.80
2019-01-20T03:31:40.995Z,-1.90
2019-01-20T03:34:11.531Z,-2.00
2019-01-20T03:36:41.620Z,-2.00
2019-01-20T03:39:11.804Z,-1.90
2019-01-20T03:41:42.592Z,-2.00
2019-01-20T03:44:12.795Z,-2.00
2019-01-20T03:46:42.958Z,-1.90
2019-01-20T03:49:13.152Z,-1.90
2019-01-20T03:51:43.251Z,-2.00
2019-01-20T03:54:13.343Z,-2.00
2019-01-20T03:56:43.503Z,-2.00
2019-01-20T03:59:13.738Z,-2.00
2019-01-20T04:01:43.903Z,-2.00
2019-01-20T04:04:14.101Z,-2.10
2019-01-20T04:06:44.255Z,-2.10
2019-01-20T04:09:14.676Z,-2.10
2019-01-20T04:11:45.704Z,-2.10
2019-01-20T04:14:15.956Z,-2.10
2019-01-20T04:16:46.142Z,-2.10
2019-01-20T04:19:18.234Z,-2.10
2019-01-20T04:21:48.302Z,-2.10
2019-01-20T04:24:18.475Z,-2.10
2019-01-20T04:26:48.679Z,-2.10
2019-01-20T04:29:18.827Z,-2.20
2019-01-20T04:31:49.109Z,-2.20
2019-01-20T04:34:19.277Z,-2.20
2019-01-20T04:36:49.392Z,-2.30
2019-01-20T04:39:19.620Z,-2.30
2019-01-20T04:41:49.750Z,-2.40
2019-01-20T04:44:19.909Z,-2.40
2019-01-20T04:46:50.200Z,-2.50
2019-01-20T04:49:20.425Z,-2.40
2019-01-20T04:51:50.607Z,-2.40
2019-01-20T04:54:21.057Z,-2.40
2019-01-20T04:56:51.221Z,-2.40
2019-01-20T04:59:21.335Z,-2.40
2019-01-20T05:01:51.518Z,-2.40
2019-01-20T05:04:21.696Z,-2.40
2019-01-20T05:06:51.873Z,-2.50
2019-01-20T05:09:22.049Z,-2.50
2019-01-20T05:11:52.449Z,-2.50
2019-01-20T05:14:22.585Z,-2.50
2019-01-20T05:16:52.874Z,-2.60
2019-01-20T05:19:23.181Z,-2.60
2019-01-20T05:21:53.312Z,-2.60
2019-01-20T05:24:23.387Z,-2.60
2019-01-20T05:26:53.496Z,-2.60
2019-01-20T05:29:23.665Z,-2.60
2019-01-20T05:31:53.839Z,-2.70
2019-01-20T05:34:23.918Z,-2.70
2019-01-20T05:36:55.969Z,-2.70
2019-01-20T05:39:26.309Z,-2.70
2019-01-20T05:41:56.502Z,-2.70
2019-01-20T05:44:26.883Z,-2.70
2019-01-20T05:46:57.152Z,-2.70
2019-01-20T05:49:27.306Z,-2.70
2019-01-20T05:51:57.419Z,-2.70
2019-01-20T05:54:27.588Z,-2.80
2019-01-20T05:56:57.706Z,-2.70
2019-01-20T05:59:27.791Z,-2.80
2019-01-20T06:01:57.957Z,-2.80
2019-01-20T06:04:28.085Z,-2.80
2019-01-20T06:06:58.416Z,-2.80
2019-01-20T06:09:28.680Z,-2.80
2019-01-20T06:11:58.933Z,-2.80
2019-01-20T06:14:29.103Z,-2.80
2019-01-20T06:16:59.274Z,-2.80
2019-01-20T06:19:29.381Z,-2.80
2019-01-20T06:21:59.515Z,-2.80
2019-01-20T06:24:30.873Z,-2.90
2019-01-20T06:27:01.054Z,-3.00
2019-01-20T06:29:31.151Z,-3.00
2019-01-20T06:32:01.291Z,-3.00
2019-01-20T06:34:31.471Z,-3.00
2019-01-20T06:37:01.589Z,-3.00
2019-01-20T06:39:31.740Z,-3.00
2019-01-20T06:42:03.133Z,-3.00
2019-01-20T06:44:33.338Z,-3.00
2019-01-20T06:47:03.635Z,-3.00
2019-01-20T06:49:33.728Z,-2.90
2019-01-20T06:52:03.917Z,-2.90
2019-01-20T06:54:34.021Z,-2.90
2019-01-20T06:57:04.211Z,-2.90
2019-01-20T06:59:34.399Z,-2.80
2019-01-20T07:02:04.938Z,-2.80
2019-01-20T07:04:35.327Z,-2.90
2019-01-20T07:07:06.265Z,-2.90
2019-01-20T07:09:38.620Z,-2.90
2019-01-20T07:12:09.358Z,-2.90
2019-01-20T07:14:40.108Z,-3.00
2019-01-20T07:17:11.393Z,-3.10
2019-01-20T07:19:42.641Z,-3.10
2019-01-20T07:22:13.587Z,-3.20
2019-01-20T07:24:44.662Z,-3.10
2019-01-20T07:27:15.864Z,-3.10
2019-01-20T07:29:46.908Z,-3.10
2019-01-20T07:32:17.789Z,-3.10
2019-01-20T07:34:48.586Z,-3.10
2019-01-20T07:37:19.721Z,-3.20
2019-01-20T07:39:50.903Z,-3.20
2019-01-20T07:42:21.981Z,-3.20
2019-01-20T07:44:52.474Z,-3.10
2019-01-20T07:47:23.519Z,-3.20
2019-01-20T07:49:54.054Z,-3.20
2019-01-20T07:52:25.111Z,-3.20
2019-01-20T07:54:56.675Z,-3.20
2019-01-20T07:57:27.644Z,-3.30
2019-01-20T07:59:58.341Z,-3.30
2019-01-20T08:02:29.173Z,-3.30
2019-01-20T08:04:59.860Z,-3.30
2019-01-20T08:07:30.865Z,-3.20
2019-01-20T08:10:03.384Z,-3.20
2019-01-20T08:12:34.438Z,-3.20
2019-01-20T08:15:06.853Z,-3.00
2019-01-20T08:17:39.114Z,-3.00
2019-01-20T08:20:13.435Z,-3.00
2019-01-20T08:22:44.469Z,-2.90
2019-01-20T08:25:16.209Z,-2.80
2019-01-20T08:27:47.261Z,-2.80
2019-01-20T08:30:20.703Z,-2.70
2019-01-20T08:32:51.861Z,-2.70
2019-01-20T08:35:25.867Z,-2.60
2019-01-20T08:37:56.967Z,-2.50
2019-01-20T08:40:30.529Z,-2.50
2019-01-20T08:43:01.549Z,-2.40
2019-01-20T08:46:08.107Z,-2.40
2019-01-20T08:48:39.190Z,-2.40
2019-01-20T08:51:10.204Z,-2.40
2019-01-20T08:53:41.356Z,-2.30
2019-01-20T08:56:11.959Z,-2.30
2019-01-20T08:58:43.049Z,-2.20
2019-01-20T09:01:14.322Z,-2.10
2019-01-20T09:03:45.387Z,-2.20
2019-01-20T09:06:16.204Z,-2.30
2019-01-20T09:08:47.084Z,-2.40
2019-01-20T09:11:17.905Z,-2.40
2019-01-20T09:13:49.264Z,-2.40
2019-01-20T09:16:20.046Z,-2.40
2019-01-20T09:18:50.874Z,-2.50
2019-01-20T09:21:21.972Z,-2.40
2019-01-20T09:23:55.082Z,-2.40
2019-01-20T09:26:25.858Z,-2.50
2019-01-20T09:28:56.747Z,-2.50
2019-01-20T09:31:27.576Z,-2.50
2019-01-20T09:33:58.852Z,-2.50
2019-01-20T09:36:29.856Z,-2.30
2019-01-20T09:39:00.854Z,-2.30
2019-01-20T09:41:31.930Z,-2.30
2019-01-20T09:44:02.924Z,-2.20
2019-01-20T09:46:33.926Z,-2.20
2019-01-20T09:49:04.760Z,-2.10
2019-01-20T09:51:35.712Z,-2.20
2019-01-20T09:54:06.581Z,-2.10
2019-01-20T09:56:37.110Z,-2.20
2019-01-20T09:59:07.891Z,-2.20
2019-01-20T10:01:38.780Z,-2.30
2019-01-20T10:04:09.343Z,-2.20
2019-01-20T10:06:39.854Z,-2.30
2019-01-20T10:09:10.778Z,-2.10
2019-01-20T10:11:41.626Z,-2.10
2019-01-20T10:14:12.060Z,-2.20
2019-01-20T10:16:43.972Z,-2.10
2019-01-20T10:19:14.563Z,-2.10
2019-01-20T10:21:45.199Z,-2.00
2019-01-20T10:24:15.682Z,-2.00
2019-01-20T10:26:46.564Z,-1.90
2019-01-20T10:29:17.159Z,-1.90
2019-01-20T10:31:47.886Z,-2.00
2019-01-20T10:34:18.670Z,-1.90
2019-01-20T10:36:49.609Z,-1.90
2019-01-20T10:39:20.359Z,-1.80
2019-01-20T10:41:51.217Z,-1.80
2019-01-20T10:44:22.058Z,-1.70
2019-01-20T10:46:52.625Z,-1.90
2019-01-20T10:49:23.076Z,-1.80
2019-01-20T10:51:53.555Z,-1.90
2019-01-20T10:54:24.250Z,-2.00
2019-01-20T10:56:56.077Z,-2.00
2019-01-20T10:59:26.525Z,-2.00
2019-01-20T11:01:56.945Z,-2.10
2019-01-20T11:04:27.551Z,-2.20
2019-01-20T11:06:58.464Z,-2.20
2019-01-20T11:09:29.338Z,-2.10
2019-01-20T11:12:00.468Z,-2.00
2019-01-20T11:14:31.232Z,-1.90
2019-01-20T11:17:04.667Z,-1.90
2019-01-20T11:19:37.038Z,-1.80
2019-01-20T11:22:08.252Z,-1.80
2019-01-20T11:24:39.319Z,-1.80
2019-01-20T11:27:13.274Z,-1.80
2019-01-20T11:29:44.084Z,-1.80
2019-01-20T11:32:14.750Z,-1.70
2019-01-20T11:34:45.774Z,-1.60
2019-01-20T11:37:17.278Z,-1.60
2019-01-20T11:39:47.802Z,-1.70
2019-01-20T11:42:18.890Z,-1.70
2019-01-20T11:44:49.590Z,-1.80
2019-01-20T11:47:20.938Z,-1.80
2019-01-20T11:49:51.985Z,-1.90
2019-01-20T11:52:22.936Z,-1.90
2019-01-20T11:54:54.878Z,-1.90
2019-01-20T11:57:26.224Z,-1.90
2019-01-20T11:59:57.342Z,-2.00
2019-01-20T12:02:31.372Z,-2.00
2019-01-20T12:05:02.488Z,-1.90
2019-01-20T12:07:33.538Z,-2.00
2019-01-20T12:10:05.662Z,-1.90
2019-01-20T12:12:36.877Z,-1.80
2019-01-20T12:15:10.099Z,-1.80
2019-01-20T12:17:41.265Z,-1.80
2019-01-20T12:20:12.519Z,-1.80
2019-01-20T12:22:43.667Z,-1.70
2019-01-20T12:25:15.961Z,-1.50
2019-01-20T12:27:47.127Z,-1.30
2019-01-20T12:30:20.769Z,-1.20
2019-01-20T12:32:51.972Z,-1.10
2019-01-20T12:35:25.418Z,-1.00
2019-01-20T12:37:56.197Z,-0.90
2019-01-20T12:40:30.314Z,-0.90
2019-01-20T12:43:03.649Z,-0.90
2019-01-20T12:45:34.587Z,-1.00
2019-01-20T12:48:07.449Z,-0.90
2019-01-20T12:50:39.306Z,-0.80
2019-01-20T12:53:10.281Z,-0.80
2019-01-20T12:55:41.318Z,-0.80
2019-01-20T12:58:12.489Z,-0.80
2019-01-20T13:00:43.347Z,-0.80
2019-01-20T13:03:14.451Z,-0.80
2019-01-20T13:05:45.269Z,-0.80
2019-01-20T13:08:16.043Z,-0.80
2019-01-20T13:10:46.955Z,-0.90
2019-01-20T13:13:18.038Z,-0.90
2019-01-20T13:15:48.989Z,-0.90
2019-01-20T13:18:23.106Z,-0.90
2019-01-20T13:20:54.086Z,-0.90
2019-01-20T13:23:25.481Z,-0.80
2019-01-20T13:25:56.437Z,-0.80
2019-01-20T13:28:27.254Z,-0.70
2019-01-20T13:30:58.499Z,-0.60
2019-01-20T13:33:29.775Z,-0.50
2019-01-20T13:36:07.163Z,-0.40
2019-01-20T13:38:34.189Z,-0.20
2019-01-20T13:41:12.375Z,-0.10
2019-01-20T13:43:43.499Z,0.00
2019-01-20T13:46:14.378Z,0.10
2019-01-20T13:48:45.593Z,0.00
2019-01-20T13:51:16.585Z,0.00
2019-01-20T13:53:47.929Z,0.00
2019-01-20T13:56:18.668Z,0.20
2019-01-20T13:58:49.571Z,0.20
2019-01-20T14:01:20.431Z,0.20
2019-01-20T14:03:51.286Z,0.20
2019-01-20T14:06:22.807Z,0.30
2019-01-20T14:08:53.809Z,0.40
2019-01-20T14:11:24.785Z,0.50
2019-01-20T14:13:55.446Z,0.50
2019-01-20T14:16:26.564Z,0.50
2019-01-20T14:18:57.291Z,0.50
2019-01-20T14:21:28.272Z,0.50
2019-01-20T14:23:59.026Z,0.60
2019-01-20T14:26:30.831Z,0.60
2019-01-20T14:29:01.321Z,0.80
2019-01-20T14:31:32.085Z,0.70
2019-01-20T14:34:03.345Z,0.80
2019-01-20T14:36:34.323Z,0.80
2019-01-20T14:39:08.688Z,0.80
2019-01-20T14:41:39.531Z,0.70
2019-01-20T14:44:11.026Z,0.70
2019-01-20T14:46:42.037Z,0.70
2019-01-20T14:49:13.183Z,0.70
2019-01-20T14:51:44.080Z,0.60
2019-01-20T14:54:17.864Z,0.50
2019-01-20T14:56:48.781Z,0.60
2019-01-20T14:59:20.971Z,0.50
2019-01-20T15:01:52.235Z,0.40
2019-01-20T15:04:23.511Z,0.30
2019-01-20T15:06:55.087Z,0.30
2019-01-20T15:09:26.343Z,0.20
2019-01-20T15:11:58.154Z,0.30
2019-01-20T15:14:30.188Z,0.30
2019-01-20T15:17:01.202Z,0.20
2019-01-20T15:19:35.110Z,0.10
2019-01-20T15:22:06.170Z,0.20
2019-01-20T15:24:36.916Z,0.30
2019-01-20T15:27:10.721Z,0.50
2019-01-20T15:29:40.774Z,0.60
2019-01-20T15:32:11.451Z,0.70
2019-01-20T15:34:43.257Z,0.80
2019-01-20T15:37:13.710Z,0.90
2019-01-20T15:39:44.538Z,0.90
2019-01-20T15:42:15.141Z,1.00
2019-01-20T15:44:46.106Z,0.90
2019-01-20T15:47:18.260Z,0.70
2019-01-20T15:49:53.572Z,0.60
2019-01-20T15:52:24.352Z,0.60
2019-01-20T15:54:54.879Z,0.50
2019-01-20T15:57:26.431Z,0.50
2019-01-20T15:59:57.071Z,0.40
2019-01-20T16:02:27.760Z,0.30
2019-01-20T16:04:58.087Z,0.20
2019-01-20T16:07:30.626Z,0.20
2019-01-20T16:10:00.960Z,0.20
2019-01-20T16:12:31.225Z,0.00
2019-01-20T16:15:01.559Z,0.00
2019-01-20T16:17:31.743Z,0.00
2019-01-20T16:20:02.005Z,0.00
2019-01-20T16:22:32.288Z,0.00
2019-01-20T16:25:02.594Z,0.00
2019-01-20T16:27:32.858Z,-0.10
2019-01-20T16:30:03.147Z,-0.10
2019-01-20T16:32:33.641Z,-0.10
2019-01-20T16:35:04.727Z,-0.20
2019-01-20T16:37:36.736Z,-0.20
2019-01-20T16:40:07.975Z,-0.30
2019-01-20T16:42:38.372Z,-0.30
2019-01-20T16:45:10.472Z,-0.30
2019-01-20T16:47:41.194Z,-0.40
2019-01-20T16:50:14.640Z,-0.40
2019-01-20T16:52:46.750Z,-0.50
2019-01-20T16:55:17.426Z,-0.60
2019-01-20T16:57:47.842Z,-0.60
2019-01-20T17:00:23.466Z,-0.60
2019-01-20T17:02:54.025Z,-0.60
2019-01-20T17:05:26.748Z,-0.70
2019-01-20T17:07:57.442Z,-0.70
2019-01-20T17:10:36.264Z,-0.80
2019-01-20T17:13:07.849Z,-0.90
2019-01-20T17:15:40.898Z,-0.90
2019-01-20T17:18:13.406Z,-0.90
2019-01-20T17:20:44.062Z,-1.00
2019-01-20T17:23:14.310Z,-1.10
2019-01-20T17:25:44.458Z,-1.10
2019-01-20T17:28:14.606Z,-1.20
2019-01-20T17:30:46.734Z,-1.20
2019-01-20T17:33:17.018Z,-1.20
2019-01-20T17:35:47.314Z,-1.20
2019-01-20T17:38:17.613Z,-1.30
2019-01-20T17:40:48.034Z,-1.30
2019-01-20T17:43:18.373Z,-1.30
2019-01-20T17:45:50.026Z,-1.40
2019-01-20T17:48:20.635Z,-1.50
2019-01-20T17:50:50.839Z,-1.40
2019-01-20T17:53:21.056Z,-1.50
2019-01-20T17:55:51.367Z,-1.50
2019-01-20T17:58:21.576Z,-1.60
2019-01-20T18:00:56.289Z,-1.50
2019-01-20T18:03:26.567Z,-1.60
2019-01-20T18:05:56.810Z,-1.60
2019-01-20T18:08:26.949Z,-1.70
2019-01-20T18:10:57.794Z,-1.80
2019-01-20T18:13:28.017Z,-1.80
2019-01-20T18:15:58.202Z,-1.90
2019-01-20T18:18:28.426Z,-1.90
2019-01-20T18:20:58.569Z,-1.80
2019-01-20T18:23:28.873Z,-1.90
2019-01-20T18:25:59.104Z,-1.90
2019-01-20T18:28:29.275Z,-1.90
2019-01-20T18:30:59.508Z,-1.90
2019-01-20T18:33:29.613Z,-2.00
2019-01-20T18:35:59.968Z,-2.10
2019-01-20T18:38:30.230Z,-2.10
2019-01-20T18:41:00.526Z,-2.20
2019-01-20T18:43:30.885Z,-2.20
2019-01-20T18:46:02.094Z,-2.20
2019-01-20T18:48:34.947Z,-2.30
2019-01-20T18:51:05.288Z,-2.20
2019-01-20T18:53:35.668Z,-2.20
2019-01-20T18:56:09.455Z,-2.30
2019-01-20T18:58:39.947Z,-2.20
2019-01-20T19:01:13.365Z,-2.10
2019-01-20T19:03:43.595Z,-2.20
2019-01-20T19:06:13.819Z,-2.30
2019-01-20T19:08:44.155Z,-2.30
2019-01-20T19:11:14.414Z,-2.40
2019-01-20T19:13:45.174Z,-2.30
2019-01-20T19:16:15.507Z,-2.30
2019-01-20T19:18:45.727Z,-2.40
2019-01-20T19:21:16.160Z,-2.40
2019-01-20T19:23:46.481Z,-2.30
2019-01-20T19:26:16.705Z,-2.40
2019-01-20T19:28:48.479Z,-2.30
2019-01-20T19:31:18.679Z,-2.40
2019-01-20T19:33:48.997Z,-2.40
2019-01-20T19:36:22.427Z,-2.40
2019-01-20T19:38:54.567Z,-2.40
2019-01-20T19:41:24.601Z,-2.20
2019-01-20T19:43:55.175Z,-2.10
2019-01-20T19:46:25.604Z,-2.00
2019-01-20T19:48:56.011Z,-1.90
2019-01-20T19:51:26.404Z,-1.80
2019-01-20T19:53:57.507Z,-1.70
2019-01-20T19:56:28.078Z,-1.60
2019-01-20T19:58:58.523Z,-1.60
2019-01-20T20:01:30.891Z,-1.50
2019-01-20T20:04:01.115Z,-1.50
2019-01-20T20:06:31.396Z,-1.40
2019-01-20T20:09:01.795Z,-1.30
2019-01-20T20:11:35.096Z,-1.30
2019-01-20T20:14:05.569Z,-1.30
2019-01-20T20:16:35.958Z,-1.30
2019-01-20T20:19:06.514Z,-1.30
2019-01-20T20:21:36.969Z,-1.30
2019-01-20T20:24:07.407Z,-1.30
2019-01-20T20:26:37.799Z,-1.40
2019-01-20T20:29:10.121Z,-1.40
2019-01-20T20:31:40.555Z,-1.40
2019-01-20T20:34:11.127Z,-1.40
2019-01-20T20:36:43.585Z,-1.40
2019-01-20T20:39:17.047Z,-1.40
2019-01-20T20:41:50.333Z,-1.40
2019-01-20T20:44:20.914Z,-1.50
2019-01-20T20:46:51.511Z,-1.60
2019-01-20T20:49:21.957Z,-1.60
2019-01-20T20:51:52.573Z,-1.60
2019-01-20T20:54:22.900Z,-1.60
2019-01-20T20:56:53.528Z,-1.50
2019-01-20T20:59:24.843Z,-1.60
2019-01-20T21:01:55.471Z,-1.60
2019-01-20T21:04:25.829Z,-1.60
2019-01-20T21:06:56.174Z,-1.70
2019-01-20T21:09:26.574Z,-1.70
2019-01-20T21:11:56.829Z,-1.80
2019-01-20T21:14:27.082Z,-1.90
2019-01-20T21:16:57.425Z,-1.80
2019-01-20T21:19:27.670Z,-1.90
2019-01-20T21:21:57.907Z,-2.00
2019-01-20T21:24:28.711Z,-2.10
2019-01-20T21:26:58.996Z,-2.00
2019-01-20T21:29:29.294Z,-2.00
2019-01-20T21:31:59.731Z,-2.10
2019-01-20T21:34:29.932Z,-2.00
2019-01-20T21:37:00.202Z,-2.00
2019-01-20T21:39:30.628Z,-2.10
2019-01-20T21:42:00.935Z,-2.20
2019-01-20T21:44:31.273Z,-2.20
2019-01-20T21:47:01.929Z,-2.30
2019-01-20T21:49:32.422Z,-2.20
2019-01-20T21:52:02.938Z,-2.20
2019-01-20T21:54:33.227Z,-2.30
2019-01-20T21:57:03.484Z,-2.40
2019-01-20T21:59:33.999Z,-2.30
2019-01-20T22:02:04.290Z,-2.30
2019-01-20T22:04:34.494Z,-2.40
2019-01-20T22:07:04.857Z,-2.50
2019-01-20T22:09:35.118Z,-2.60
2019-01-20T22:12:05.227Z,-2.70
2019-01-20T22:14:35.538Z,-2.90
2019-01-20T22:17:11.022Z,-2.80
2019-01-20T22:19:41.283Z,-2.80
2019-01-20T22:22:11.488Z,-2.80
2019-01-20T22:24:41.989Z,-2.80
2019-01-20T22:27:12.162Z,-2.80
2019-01-20T22:29:42.441Z,-2.70
2019-01-20T22:32:13.084Z,-2.70
2019-01-20T22:34:43.340Z,-2.90
2019-01-20T22:37:13.568Z,-2.90
2019-01-20T22:39:43.876Z,-3.00
2019-01-20T22:42:14.204Z,-3.00
2019-01-20T22:44:44.604Z,-3.10
2019-01-20T22:47:15.212Z,-3.20
2019-01-20T22:49:45.804Z,-3.30
2019-01-20T22:52:16.500Z,-3.60
2019-01-20T22:54:47.430Z,-3.70
2019-01-20T22:57:17.959Z,-3.70
2019-01-20T22:59:48.214Z,-3.50
2019-01-20T23:02:18.503Z,-3.50
2019-01-20T23:04:48.679Z,-3.50
2019-01-20T23:07:18.900Z,-3.50
2019-01-20T23:09:49.460Z,-3.50
2019-01-20T23:12:19.836Z,-3.50
2019-01-20T23:14:50.119Z,-3.50
2019-01-20T23:17:20.870Z,-3.60
2019-01-20T23:19:51.098Z,-3.70
2019-01-20T23:22:21.355Z,-3.60
2019-01-20T23:24:51.471Z,-3.40
2019-01-20T23:27:21.799Z,-3.40
2019-01-20T23:29:52.016Z,-3.30
2019-01-20T23:32:22.204Z,-3.40
2019-01-20T23:34:52.357Z,-3.30
2019-01-20T23:37:22.659Z,-3.30
2019-01-20T23:39:53.257Z,-3.40
2019-01-20T23:42:23.694Z,-3.40
2019-01-20T23:44:54.148Z,-3.40
2019-01-20T23:47:25.486Z,-3.50
2019-01-20T23:49:55.700Z,-3.60
2019-01-20T23:52:27.390Z,-3.60
2019-01-20T23:54:57.619Z,-3.70
2019-01-20T23:57:27.914Z,-3.70
2019-01-20T23:59:58.204Z,-3.70
